sensor_id;sensor_type;location;lat;lon;timestamp;pressure;altitude;pressure_sealevel;temperature;humidity
65211;BME280;51794;52.758;55.792;2023-02-12T00:00:36;98667.22;;;-4.66;68.30
65211;BME280;51794;52.758;55.792;2023-02-12T00:03:03;98665.63;;;-4.69;68.15
65211;BME280;51794;52.758;55.792;2023-02-12T00:05:30;98673.31;;;-5.10;67.43
65211;BME280;51794;52.758;55.792;2023-02-12T00:07:56;98669.69;;;-5.26;67.69
65211;BME280;51794;52.758;55.792;2023-02-12T00:10:23;98672.94;;;-5.00;67.54
65211;BME280;51794;52.758;55.792;2023-02-12T00:12:49;98669.06;;;-5.55;66.44
65211;BME280;51794;52.758;55.792;2023-02-12T00:15:17;98664.13;;;-5.39;67.23
65211;BME280;51794;52.758;55.792;2023-02-12T00:17:43;98662.13;;;-5.53;67.58
65211;BME280;51794;52.758;55.792;2023-02-12T00:20:10;98661.13;;;-5.72;67.54
65211;BME280;51794;52.758;55.792;2023-02-12T00:22:36;98655.31;;;-6.23;68.56
65211;BME280;51794;52.758;55.792;2023-02-12T00:25:02;98650.78;;;-6.16;69.14
65211;BME280;51794;52.758;55.792;2023-02-12T00:27:32;98655.13;;;-5.72;69.53
65211;BME280;51794;52.758;55.792;2023-02-12T00:29:58;98661.47;;;-6.27;69.32
65211;BME280;51794;52.758;55.792;2023-02-12T00:32:24;98657.94;;;-6.01;68.86
65211;BME280;51794;52.758;55.792;2023-02-12T00:34:50;98674.28;;;-6.49;69.71
65211;BME280;51794;52.758;55.792;2023-02-12T00:37:16;98671.88;;;-6.28;69.38
65211;BME280;51794;52.758;55.792;2023-02-12T00:39:42;98669.81;;;-5.96;69.07
65211;BME280;51794;52.758;55.792;2023-02-12T00:42:08;98674.59;;;-6.33;69.81
65211;BME280;51794;52.758;55.792;2023-02-12T00:44:35;98671.88;;;-6.28;70.17
65211;BME280;51794;52.758;55.792;2023-02-12T00:47:01;98673.59;;;-6.05;69.81
65211;BME280;51794;52.758;55.792;2023-02-12T00:49:31;98664.03;;;-5.58;70.22
65211;BME280;51794;52.758;55.792;2023-02-12T00:52:01;98672.28;;;-6.17;70.65
65211;BME280;51794;52.758;55.792;2023-02-12T00:54:28;98672.06;;;-6.11;70.97
65211;BME280;51794;52.758;55.792;2023-02-12T00:56:54;98670.69;;;-6.19;70.40
65211;BME280;51794;52.758;55.792;2023-02-12T00:59:24;98660.59;;;-5.58;70.29
65211;BME280;51794;52.758;55.792;2023-02-12T01:01:52;98667.56;;;-6.29;70.35
65211;BME280;51794;52.758;55.792;2023-02-12T01:04:19;98671.72;;;-6.49;70.99
65211;BME280;51794;52.758;55.792;2023-02-12T01:06:45;98668.53;;;-6.32;70.22
65211;BME280;51794;52.758;55.792;2023-02-12T01:09:11;98666.66;;;-6.52;70.64
65211;BME280;51794;52.758;55.792;2023-02-12T01:11:37;98678.53;;;-6.23;69.85
65211;BME280;51794;52.758;55.792;2023-02-12T01:14:03;98687.44;;;-6.08;69.14
65211;BME280;51794;52.758;55.792;2023-02-12T01:16:29;98685.75;;;-6.09;68.61
65211;BME280;51794;52.758;55.792;2023-02-12T01:19:01;98685.66;;;-6.06;68.44
65211;BME280;51794;52.758;55.792;2023-02-12T01:21:31;98684.81;;;-6.30;70.45
65211;BME280;51794;52.758;55.792;2023-02-12T01:23:57;98672.69;;;-6.28;69.99
65211;BME280;51794;52.758;55.792;2023-02-12T01:26:24;98676.81;;;-6.72;69.88
65211;BME280;51794;52.758;55.792;2023-02-12T01:28:52;98673.22;;;-6.68;70.51
65211;BME280;51794;52.758;55.792;2023-02-12T01:31:24;98670.81;;;-6.48;70.38
65211;BME280;51794;52.758;55.792;2023-02-12T01:33:52;98676.72;;;-6.69;70.17
65211;BME280;51794;52.758;55.792;2023-02-12T01:36:18;98663.13;;;-6.99;69.89
65211;BME280;51794;52.758;55.792;2023-02-12T01:38:45;98662.88;;;-7.18;70.78
65211;BME280;51794;52.758;55.792;2023-02-12T01:41:13;98671.19;;;-6.83;71.46
65211;BME280;51794;52.758;55.792;2023-02-12T01:43:40;98673.13;;;-7.17;70.92
65211;BME280;51794;52.758;55.792;2023-02-12T01:46:07;98675.91;;;-7.23;71.39
65211;BME280;51794;52.758;55.792;2023-02-12T01:48:38;98676.56;;;-6.64;70.89
65211;BME280;51794;52.758;55.792;2023-02-12T01:51:06;98672.22;;;-6.89;70.71
65211;BME280;51794;52.758;55.792;2023-02-12T01:53:39;98682.91;;;-6.75;69.69
65211;BME280;51794;52.758;55.792;2023-02-12T01:56:08;98684.69;;;-7.02;69.55
65211;BME280;51794;52.758;55.792;2023-02-12T01:58:39;98683.50;;;-6.67;69.64
65211;BME280;51794;52.758;55.792;2023-02-12T02:01:10;98678.78;;;-6.79;69.42
65211;BME280;51794;52.758;55.792;2023-02-12T02:03:38;98684.72;;;-6.77;69.24
65211;BME280;51794;52.758;55.792;2023-02-12T02:06:16;98685.91;;;-6.62;69.47
65211;BME280;51794;52.758;55.792;2023-02-12T02:08:42;98685.69;;;-7.34;69.69
65211;BME280;51794;52.758;55.792;2023-02-12T02:11:08;98680.47;;;-7.31;69.65
65211;BME280;51794;52.758;55.792;2023-02-12T02:13:54;98691.28;;;-7.48;70.50
65211;BME280;51794;52.758;55.792;2023-02-12T02:17:08;98687.91;;;-7.22;70.89
65211;BME280;51794;52.758;55.792;2023-02-12T02:30:59;98689.19;;;-7.08;69.63
65211;BME280;51794;52.758;55.792;2023-02-12T02:33:38;98684.72;;;-6.77;69.20
65211;BME280;51794;52.758;55.792;2023-02-12T02:36:14;98694.13;;;-6.76;69.29
65211;BME280;51794;52.758;55.792;2023-02-12T02:41:55;98702.50;;;-6.69;68.74
65211;BME280;51794;52.758;55.792;2023-02-12T02:44:34;98699.69;;;-6.88;68.21
65211;BME280;51794;52.758;55.792;2023-02-12T02:47:04;98692.88;;;-7.44;68.63
65211;BME280;51794;52.758;55.792;2023-02-12T02:49:34;98690.25;;;-6.89;68.31
65211;BME280;51794;52.758;55.792;2023-02-12T02:52:07;98698.25;;;-7.23;67.90
65211;BME280;51794;52.758;55.792;2023-02-12T02:55:02;98698.72;;;-6.34;66.66
65211;BME280;51794;52.758;55.792;2023-02-12T02:57:36;98699.50;;;-6.82;68.69
65211;BME280;51794;52.758;55.792;2023-02-12T03:00:16;98695.63;;;-6.95;67.79
65211;BME280;51794;52.758;55.792;2023-02-12T03:02:53;98716.63;;;-6.81;68.19
65211;BME280;51794;52.758;55.792;2023-02-12T03:05:25;98712.06;;;-6.98;68.24
65211;BME280;51794;52.758;55.792;2023-02-12T03:07:58;98700.09;;;-6.49;67.13
65211;BME280;51794;52.758;55.792;2023-02-12T03:10:29;98703.00;;;-7.11;67.74
65211;BME280;51794;52.758;55.792;2023-02-12T03:13:07;98710.34;;;-7.53;68.54
65211;BME280;51794;52.758;55.792;2023-02-12T03:15:36;98713.50;;;-7.73;68.11
65211;BME280;51794;52.758;55.792;2023-02-12T03:18:10;98707.22;;;-7.35;67.88
65211;BME280;51794;52.758;55.792;2023-02-12T03:20:45;98711.00;;;-7.19;66.96
65211;BME280;51794;52.758;55.792;2023-02-12T03:23:16;98701.03;;;-7.03;67.59
65211;BME280;51794;52.758;55.792;2023-02-12T03:25:50;98714.63;;;-6.98;67.34
65211;BME280;51794;52.758;55.792;2023-02-12T03:28:31;98713.47;;;-7.16;67.12
65211;BME280;51794;52.758;55.792;2023-02-12T03:31:11;98719.66;;;-7.21;66.40
65211;BME280;51794;52.758;55.792;2023-02-12T03:36:48;98727.03;;;-6.82;67.21
65211;BME280;51794;52.758;55.792;2023-02-12T03:42:16;98722.09;;;-7.45;68.81
65211;BME280;51794;52.758;55.792;2023-02-12T03:44:59;98719.84;;;-7.55;69.78
65211;BME280;51794;52.758;55.792;2023-02-12T03:50:19;98732.97;;;-7.35;71.29
65211;BME280;51794;52.758;55.792;2023-02-12T03:52:49;98725.88;;;-7.56;70.38
65211;BME280;51794;52.758;55.792;2023-02-12T03:55:15;98730.19;;;-7.57;71.08
65211;BME280;51794;52.758;55.792;2023-02-12T03:57:45;98723.75;;;-7.42;70.38
65211;BME280;51794;52.758;55.792;2023-02-12T04:00:19;98723.88;;;-7.75;68.93
65211;BME280;51794;52.758;55.792;2023-02-12T04:02:45;98739.25;;;-8.03;68.88
65211;BME280;51794;52.758;55.792;2023-02-12T04:05:17;98733.31;;;-6.91;68.80
65211;BME280;51794;52.758;55.792;2023-02-12T04:07:43;98728.34;;;-7.82;68.83
65211;BME280;51794;52.758;55.792;2023-02-12T04:10:10;98722.09;;;-7.17;70.61
65211;BME280;51794;52.758;55.792;2023-02-12T04:12:48;98717.28;;;-6.74;70.66
65211;BME280;51794;52.758;55.792;2023-02-12T04:18:32;98725.25;;;-6.30;70.95
65211;BME280;51794;52.758;55.792;2023-02-12T04:24:16;98743.97;;;-5.55;71.02
65211;BME280;51794;52.758;55.792;2023-02-12T04:26:48;98749.13;;;-6.00;68.35
65211;BME280;51794;52.758;55.792;2023-02-12T04:37:37;98740.63;;;-5.80;67.66
65211;BME280;51794;52.758;55.792;2023-02-12T04:40:10;98749.13;;;-6.00;68.63
65211;BME280;51794;52.758;55.792;2023-02-12T04:42:45;98748.13;;;-5.51;69.48
65211;BME280;51794;52.758;55.792;2023-02-12T04:45:14;98738.91;;;-5.34;68.97
65211;BME280;51794;52.758;55.792;2023-02-12T04:47:41;98745.78;;;-5.57;69.29
65211;BME280;51794;52.758;55.792;2023-02-12T04:50:08;98734.69;;;-5.37;69.76
65211;BME280;51794;52.758;55.792;2023-02-12T04:52:34;98740.41;;;-5.07;67.01
65211;BME280;51794;52.758;55.792;2023-02-12T04:55:00;98739.19;;;-4.76;69.23
65211;BME280;51794;52.758;55.792;2023-02-12T04:57:26;98730.03;;;-5.05;67.42
65211;BME280;51794;52.758;55.792;2023-02-12T04:59:52;98734.56;;;-5.56;65.91
65211;BME280;51794;52.758;55.792;2023-02-12T05:02:17;98731.44;;;-5.42;65.77
65211;BME280;51794;52.758;55.792;2023-02-12T05:04:43;98746.66;;;-4.48;68.88
65211;BME280;51794;52.758;55.792;2023-02-12T05:07:10;98742.84;;;-4.60;68.03
65211;BME280;51794;52.758;55.792;2023-02-12T05:09:36;98732.72;;;-4.04;69.25
65211;BME280;51794;52.758;55.792;2023-02-12T05:12:02;98732.34;;;-4.16;69.15
65211;BME280;51794;52.758;55.792;2023-02-12T05:14:28;98722.06;;;-4.58;67.53
65211;BME280;51794;52.758;55.792;2023-02-12T05:16:54;98729.03;;;-4.19;67.21
65211;BME280;51794;52.758;55.792;2023-02-12T05:19:20;98728.56;;;-4.70;69.02
65211;BME280;51794;52.758;55.792;2023-02-12T05:21:49;98729.66;;;-4.53;68.31
65211;BME280;51794;52.758;55.792;2023-02-12T05:24:16;98722.63;;;-4.51;66.25
65211;BME280;51794;52.758;55.792;2023-02-12T05:26:42;98719.38;;;-3.38;67.68
65211;BME280;51794;52.758;55.792;2023-02-12T05:29:08;98723.81;;;-3.78;64.15
65211;BME280;51794;52.758;55.792;2023-02-12T05:31:33;98726.66;;;-4.24;64.29
65211;BME280;51794;52.758;55.792;2023-02-12T05:34:00;98727.66;;;-4.07;65.67
65211;BME280;51794;52.758;55.792;2023-02-12T05:36:26;98715.97;;;-3.39;68.55
65211;BME280;51794;52.758;55.792;2023-02-12T05:38:56;98713.84;;;-3.50;64.21
65211;BME280;51794;52.758;55.792;2023-02-12T05:41:23;98708.63;;;-3.12;63.97
65211;BME280;51794;52.758;55.792;2023-02-12T05:43:50;98711.75;;;-3.60;62.25
65211;BME280;51794;52.758;55.792;2023-02-12T05:46:18;98721.53;;;-3.86;61.50
65211;BME280;51794;52.758;55.792;2023-02-12T05:48:44;98724.66;;;-4.17;64.46
65211;BME280;51794;52.758;55.792;2023-02-12T05:51:18;98722.84;;;-4.35;60.61
65211;BME280;51794;52.758;55.792;2023-02-12T05:53:47;98728.41;;;-4.45;61.50
65211;BME280;51794;52.758;55.792;2023-02-12T05:56:19;98725.00;;;-3.66;60.24
65211;BME280;51794;52.758;55.792;2023-02-12T05:58:47;98717.47;;;-4.51;59.56
65211;BME280;51794;52.758;55.792;2023-02-12T06:01:20;98726.91;;;-5.13;60.66
65211;BME280;51794;52.758;55.792;2023-02-12T06:03:46;98730.00;;;-5.27;60.58
65211;BME280;51794;52.758;55.792;2023-02-12T06:06:13;98726.63;;;-4.03;59.94
65211;BME280;51794;52.758;55.792;2023-02-12T06:08:39;98728.06;;;-3.96;61.93
65211;BME280;51794;52.758;55.792;2023-02-12T06:11:07;98732.41;;;-3.78;63.77
65211;BME280;51794;52.758;55.792;2023-02-12T06:13:34;98729.66;;;-4.33;59.92
65211;BME280;51794;52.758;55.792;2023-02-12T06:16:00;98722.47;;;-4.47;59.17
65211;BME280;51794;52.758;55.792;2023-02-12T06:18:26;98733.78;;;-4.49;60.25
65211;BME280;51794;52.758;55.792;2023-02-12T06:20:52;98733.63;;;-4.67;59.29
65211;BME280;51794;52.758;55.792;2023-02-12T06:23:22;98735.34;;;-2.92;60.66
65211;BME280;51794;52.758;55.792;2023-02-12T06:25:50;98736.81;;;-2.87;60.32
65211;BME280;51794;52.758;55.792;2023-02-12T06:28:16;98734.66;;;-3.51;59.07
65211;BME280;51794;52.758;55.792;2023-02-12T06:30:42;98737.84;;;-3.08;59.58
65211;BME280;51794;52.758;55.792;2023-02-12T06:33:08;98748.06;;;-2.69;58.27
65211;BME280;51794;52.758;55.792;2023-02-12T06:35:35;98737.31;;;-3.15;57.72
65211;BME280;51794;52.758;55.792;2023-02-12T06:38:01;98742.00;;;-2.87;62.38
65211;BME280;51794;52.758;55.792;2023-02-12T06:40:27;98748.25;;;-3.46;61.66
65211;BME280;51794;52.758;55.792;2023-02-12T06:42:53;98744.84;;;-3.10;61.43
65211;BME280;51794;52.758;55.792;2023-02-12T06:45:19;98746.91;;;-3.17;61.11
65211;BME280;51794;52.758;55.792;2023-02-12T06:47:45;98747.75;;;-2.63;64.82
65211;BME280;51794;52.758;55.792;2023-02-12T06:50:11;98753.78;;;-2.10;63.41
65211;BME280;51794;52.758;55.792;2023-02-12T06:52:37;98747.47;;;-2.39;63.06
65211;BME280;51794;52.758;55.792;2023-02-12T06:55:03;98753.66;;;-2.24;71.84
65211;BME280;51794;52.758;55.792;2023-02-12T06:57:29;98750.28;;;-2.26;71.06
65211;BME280;51794;52.758;55.792;2023-02-12T06:59:55;98756.78;;;-2.35;66.83
65211;BME280;51794;52.758;55.792;2023-02-12T07:02:21;98757.84;;;-2.39;64.32
65211;BME280;51794;52.758;55.792;2023-02-12T07:04:47;98755.38;;;-2.77;64.36
65211;BME280;51794;52.758;55.792;2023-02-12T07:07:13;98741.63;;;-2.10;65.81
65211;BME280;51794;52.758;55.792;2023-02-12T07:09:39;98742.78;;;-2.50;60.72
65211;BME280;51794;52.758;55.792;2023-02-12T07:12:05;98747.34;;;-2.90;63.74
65211;BME280;51794;52.758;55.792;2023-02-12T07:14:31;98751.03;;;-2.59;63.07
65211;BME280;51794;52.758;55.792;2023-02-12T07:16:57;98742.78;;;-3.21;61.20
65211;BME280;51794;52.758;55.792;2023-02-12T07:19:24;98754.97;;;-2.87;65.96
65211;BME280;51794;52.758;55.792;2023-02-12T07:21:49;98755.31;;;-3.12;65.51
65211;BME280;51794;52.758;55.792;2023-02-12T07:24:15;98757.31;;;-2.63;68.63
65211;BME280;51794;52.758;55.792;2023-02-12T07:26:43;98751.41;;;-2.15;100.00
65211;BME280;51794;52.758;55.792;2023-02-12T07:29:09;98739.84;;;-1.92;72.33
65211;BME280;51794;52.758;55.792;2023-02-12T07:31:35;98751.44;;;-2.49;66.68
65211;BME280;51794;52.758;55.792;2023-02-12T07:34:01;98753.16;;;-2.85;64.36
65211;BME280;51794;52.758;55.792;2023-02-12T07:36:30;98743.25;;;-2.24;69.90
65211;BME280;51794;52.758;55.792;2023-02-12T07:38:57;98753.31;;;-2.01;71.57
65211;BME280;51794;52.758;55.792;2023-02-12T07:41:34;98750.28;;;-2.09;79.11
65211;BME280;51794;52.758;55.792;2023-02-12T07:44:07;98754.09;;;-1.50;83.22
65211;BME280;51794;52.758;55.792;2023-02-12T07:46:37;98751.22;;;-1.77;67.11
65211;BME280;51794;52.758;55.792;2023-02-12T07:49:05;98759.38;;;-1.85;64.08
65211;BME280;51794;52.758;55.792;2023-02-12T07:51:33;98751.84;;;-1.89;67.48
65211;BME280;51794;52.758;55.792;2023-02-12T07:54:00;98748.09;;;-2.34;63.21
65211;BME280;51794;52.758;55.792;2023-02-12T07:56:28;98753.56;;;-2.58;61.02
65211;BME280;51794;52.758;55.792;2023-02-12T07:58:59;98746.59;;;-2.74;61.25
65211;BME280;51794;52.758;55.792;2023-02-12T08:01:33;98746.47;;;-2.37;63.02
65211;BME280;51794;52.758;55.792;2023-02-12T08:04:01;98738.53;;;-2.51;62.01
65211;BME280;51794;52.758;55.792;2023-02-12T08:06:30;98735.25;;;-2.37;62.49
65211;BME280;51794;52.758;55.792;2023-02-12T08:08:58;98749.84;;;-3.06;63.11
65211;BME280;51794;52.758;55.792;2023-02-12T08:11:26;98745.44;;;-3.60;62.57
65211;BME280;51794;52.758;55.792;2023-02-12T08:13:52;98737.94;;;-3.29;63.31
65211;BME280;51794;52.758;55.792;2023-02-12T08:16:21;98734.78;;;-2.63;62.90
65211;BME280;51794;52.758;55.792;2023-02-12T08:18:49;98733.09;;;-3.17;100.00
65211;BME280;51794;52.758;55.792;2023-02-12T08:21:17;98730.69;;;-3.03;66.82
65211;BME280;51794;52.758;55.792;2023-02-12T08:23:44;98727.50;;;-2.91;66.82
65211;BME280;51794;52.758;55.792;2023-02-12T08:26:22;98738.44;;;-2.67;62.02
65211;BME280;51794;52.758;55.792;2023-02-12T08:28:54;98734.31;;;-2.88;64.03
65211;BME280;51794;52.758;55.792;2023-02-12T08:31:23;98737.13;;;-2.93;62.22
65211;BME280;51794;52.758;55.792;2023-02-12T08:33:51;98731.00;;;-2.92;60.63
65211;BME280;51794;52.758;55.792;2023-02-12T08:36:20;98724.53;;;-3.19;62.95
65211;BME280;51794;52.758;55.792;2023-02-12T08:38:46;98725.59;;;-3.99;61.14
65211;BME280;51794;52.758;55.792;2023-02-12T08:41:21;98732.75;;;-3.29;62.81
65211;BME280;51794;52.758;55.792;2023-02-12T08:43:49;98726.00;;;-3.14;62.11
65211;BME280;51794;52.758;55.792;2023-02-12T08:46:18;98731.31;;;-3.72;61.98
65211;BME280;51794;52.758;55.792;2023-02-12T08:48:45;98721.78;;;-3.34;62.57
65211;BME280;51794;52.758;55.792;2023-02-12T08:51:22;98724.88;;;-3.08;60.10
65211;BME280;51794;52.758;55.792;2023-02-12T08:53:53;98720.13;;;-3.17;61.28
65211;BME280;51794;52.758;55.792;2023-02-12T08:56:20;98724.16;;;-3.48;61.59
65211;BME280;51794;52.758;55.792;2023-02-12T08:58:46;98721.16;;;-3.97;61.03
65211;BME280;51794;52.758;55.792;2023-02-12T09:01:15;98721.81;;;-4.31;61.13
65211;BME280;51794;52.758;55.792;2023-02-12T09:03:42;98717.56;;;-3.93;61.84
65211;BME280;51794;52.758;55.792;2023-02-12T09:06:08;98724.50;;;-4.14;62.54
65211;BME280;51794;52.758;55.792;2023-02-12T09:08:35;98718.00;;;-4.43;61.27
65211;BME280;51794;52.758;55.792;2023-02-12T09:11:06;98719.66;;;-3.82;62.81
65211;BME280;51794;52.758;55.792;2023-02-12T09:13:33;98714.75;;;-3.88;63.04
65211;BME280;51794;52.758;55.792;2023-02-12T09:16:01;98715.34;;;-4.42;61.90
65211;BME280;51794;52.758;55.792;2023-02-12T09:18:28;98716.72;;;-4.33;63.72
65211;BME280;51794;52.758;55.792;2023-02-12T09:21:00;98712.94;;;-3.86;60.94
65211;BME280;51794;52.758;55.792;2023-02-12T09:23:26;98699.88;;;-3.09;63.14
65211;BME280;51794;52.758;55.792;2023-02-12T09:25:52;98711.28;;;-4.47;62.20
65211;BME280;51794;52.758;55.792;2023-02-12T09:28:19;98702.56;;;-4.05;61.84
65211;BME280;51794;52.758;55.792;2023-02-12T09:30:45;98700.09;;;-4.48;61.10
65211;BME280;51794;52.758;55.792;2023-02-12T09:33:11;98706.97;;;-4.07;61.48
65211;BME280;51794;52.758;55.792;2023-02-12T09:35:38;98706.84;;;-3.85;62.73
65211;BME280;51794;52.758;55.792;2023-02-12T09:38:05;98701.94;;;-4.31;62.20
65211;BME280;51794;52.758;55.792;2023-02-12T09:45:41;98698.47;;;-4.30;61.91
65211;BME280;51794;52.758;55.792;2023-02-12T09:48:25;98705.13;;;-4.45;62.87
65211;BME280;51794;52.758;55.792;2023-02-12T09:50:57;98703.44;;;-4.46;62.77
65211;BME280;51794;52.758;55.792;2023-02-12T09:53:27;98710.03;;;-4.39;62.77
65211;BME280;51794;52.758;55.792;2023-02-12T09:55:54;98711.84;;;-4.61;64.02
65211;BME280;51794;52.758;55.792;2023-02-12T09:58:32;98702.03;;;-4.14;62.57
65211;BME280;51794;52.758;55.792;2023-02-12T10:01:10;98715.00;;;-4.14;62.43
65211;BME280;51794;52.758;55.792;2023-02-12T10:03:38;98705.09;;;-4.86;62.10
65211;BME280;51794;52.758;55.792;2023-02-12T10:06:06;98708.88;;;-3.73;60.89
65211;BME280;51794;52.758;55.792;2023-02-12T10:11:49;98699.56;;;-3.96;59.77
65211;BME280;51794;52.758;55.792;2023-02-12T10:15:12;98694.28;;;-3.38;60.85
65211;BME280;51794;52.758;55.792;2023-02-12T10:20:39;98687.88;;;-3.86;61.76
65211;BME280;51794;52.758;55.792;2023-02-12T10:23:27;98692.09;;;-4.43;62.82
65211;BME280;51794;52.758;55.792;2023-02-12T10:25:58;98692.53;;;-3.94;62.40
65211;BME280;51794;52.758;55.792;2023-02-12T10:28:32;98685.56;;;-4.72;62.33
65211;BME280;51794;52.758;55.792;2023-02-12T10:31:02;98692.16;;;-4.24;61.85
65211;BME280;51794;52.758;55.792;2023-02-12T10:33:41;98691.03;;;-3.60;64.36
65211;BME280;51794;52.758;55.792;2023-02-12T10:36:55;98690.03;;;-4.76;63.70
65211;BME280;51794;52.758;55.792;2023-02-12T10:38:59;98680.88;;;-4.63;63.01
65211;BME280;51794;52.758;55.792;2023-02-12T10:41:27;98678.19;;;-5.24;63.77
65211;BME280;51794;52.758;55.792;2023-02-12T10:43:55;98673.63;;;-5.61;63.90
65211;BME280;51794;52.758;55.792;2023-02-12T10:46:22;98678.28;;;-4.83;63.21
65211;BME280;51794;52.758;55.792;2023-02-12T10:48:51;98677.44;;;-5.06;64.15
65211;BME280;51794;52.758;55.792;2023-02-12T10:51:44;98673.34;;;-4.89;64.85
65211;BME280;51794;52.758;55.792;2023-02-12T10:59:33;98676.47;;;-6.38;64.91
65211;BME280;51794;52.758;55.792;2023-02-12T11:01:59;98681.41;;;-6.07;64.06
65211;BME280;51794;52.758;55.792;2023-02-12T11:04:27;98684.47;;;-5.75;64.40
65211;BME280;51794;52.758;55.792;2023-02-12T11:07:03;98685.56;;;-5.35;63.97
65211;BME280;51794;52.758;55.792;2023-02-12T11:09:34;98684.22;;;-5.45;64.48
65211;BME280;51794;52.758;55.792;2023-02-12T11:12:02;98681.41;;;-5.85;63.37
65211;BME280;51794;52.758;55.792;2023-02-12T11:14:29;98669.44;;;-5.42;62.91
65211;BME280;51794;52.758;55.792;2023-02-12T11:16:57;98683.34;;;-5.44;64.21
65211;BME280;51794;52.758;55.792;2023-02-12T11:19:27;98679.47;;;-5.34;64.46
65211;BME280;51794;52.758;55.792;2023-02-12T11:22:09;98677.22;;;-5.21;62.92
65211;BME280;51794;52.758;55.792;2023-02-12T11:24:36;98670.94;;;-5.14;64.08
65211;BME280;51794;52.758;55.792;2023-02-12T11:29:44;98666.31;;;-5.50;64.73
65211;BME280;51794;52.758;55.792;2023-02-12T11:32:17;98665.19;;;-5.00;64.66
65211;BME280;51794;52.758;55.792;2023-02-12T11:35:04;98662.94;;;-5.30;64.57
65211;BME280;51794;52.758;55.792;2023-02-12T11:37:32;98663.22;;;-5.60;64.75
65211;BME280;51794;52.758;55.792;2023-02-12T11:40:01;98675.78;;;-5.72;65.51
65211;BME280;51794;52.758;55.792;2023-02-12T11:42:29;98667.16;;;-5.49;64.99
65211;BME280;51794;52.758;55.792;2023-02-12T11:44:59;98661.50;;;-5.37;67.12
65211;BME280;51794;52.758;55.792;2023-02-12T11:47:31;98666.25;;;-5.48;66.14
65211;BME280;51794;52.758;55.792;2023-02-12T11:50:25;98665.47;;;-5.29;65.95
65211;BME280;51794;52.758;55.792;2023-02-12T11:52:55;98670.91;;;-4.72;65.91
65211;BME280;51794;52.758;55.792;2023-02-12T11:55:30;98668.03;;;-5.51;66.00
65211;BME280;51794;52.758;55.792;2023-02-12T11:58:06;98669.34;;;-5.18;67.73
65211;BME280;51794;52.758;55.792;2023-02-12T12:00:44;98677.78;;;-5.57;69.04
65211;BME280;51794;52.758;55.792;2023-02-12T12:03:24;98674.72;;;-5.23;68.03
65211;BME280;51794;52.758;55.792;2023-02-12T12:05:56;98667.22;;;-5.51;66.16
65211;BME280;51794;52.758;55.792;2023-02-12T12:08:55;98667.91;;;-5.69;66.17
65211;BME280;51794;52.758;55.792;2023-02-12T12:11:24;98652.72;;;-5.77;67.59
65211;BME280;51794;52.758;55.792;2023-02-12T12:13:58;98657.91;;;-5.55;66.72
65211;BME280;51794;52.758;55.792;2023-02-12T12:16:35;98661.03;;;-5.47;65.88
65211;BME280;51794;52.758;55.792;2023-02-12T12:22:51;98644.59;;;-5.02;65.74
65211;BME280;51794;52.758;55.792;2023-02-12T12:33:02;98645.16;;;-6.27;68.05
65211;BME280;51794;52.758;55.792;2023-02-12T12:42:19;98640.56;;;-6.19;67.72
65211;BME280;51794;52.758;55.792;2023-02-12T13:06:55;98644.31;;;-6.76;68.62
65211;BME280;51794;52.758;55.792;2023-02-12T13:12:36;98651.34;;;-7.06;69.37
65211;BME280;51794;52.758;55.792;2023-02-12T13:17:49;98638.09;;;-6.96;68.67
65211;BME280;51794;52.758;55.792;2023-02-12T13:20:33;98635.13;;;-7.10;69.87
65211;BME280;51794;52.758;55.792;2023-02-12T13:26:15;98636.09;;;-6.87;69.31
65211;BME280;51794;52.758;55.792;2023-02-12T13:28:50;98638.59;;;-7.11;69.62
65211;BME280;51794;52.758;55.792;2023-02-12T13:31:20;98632.25;;;-7.01;70.17
65211;BME280;51794;52.758;55.792;2023-02-12T13:33:50;98637.47;;;-7.29;69.14
65211;BME280;51794;52.758;55.792;2023-02-12T13:36:17;98644.88;;;-7.46;69.51
65211;BME280;51794;52.758;55.792;2023-02-12T13:41:29;98641.44;;;-7.19;68.36
65211;BME280;51794;52.758;55.792;2023-02-12T13:44:22;98638.34;;;-7.03;69.17
65211;BME280;51794;52.758;55.792;2023-02-12T13:49:48;98641.38;;;-7.44;68.92
65211;BME280;51794;52.758;55.792;2023-02-12T13:52:35;98642.38;;;-7.21;69.14
65211;BME280;51794;52.758;55.792;2023-02-12T14:01:07;98643.97;;;-7.72;70.04
65211;BME280;51794;52.758;55.792;2023-02-12T14:03:36;98631.13;;;-8.01;69.18
65211;BME280;51794;52.758;55.792;2023-02-12T14:06:23;98629.63;;;-7.79;69.47
65211;BME280;51794;52.758;55.792;2023-02-12T14:08:52;98630.31;;;-8.02;70.47
65211;BME280;51794;52.758;55.792;2023-02-12T14:11:31;98636.75;;;-8.18;69.83
65211;BME280;51794;52.758;55.792;2023-02-12T14:14:00;98628.03;;;-7.55;68.57
65211;BME280;51794;52.758;55.792;2023-02-12T14:22:09;98629.66;;;-7.80;67.91
65211;BME280;51794;52.758;55.792;2023-02-12T14:27:26;98627.91;;;-7.80;67.97
65211;BME280;51794;52.758;55.792;2023-02-12T14:30:00;98628.53;;;-7.72;69.13
65211;BME280;51794;52.758;55.792;2023-02-12T14:38:03;98638.91;;;-7.75;66.61
65211;BME280;51794;52.758;55.792;2023-02-12T14:43:01;98647.06;;;-8.18;68.46
65211;BME280;51794;52.758;55.792;2023-02-12T14:45:35;98648.47;;;-8.38;68.96
65211;BME280;51794;52.758;55.792;2023-02-12T14:48:03;98650.66;;;-8.54;68.33
65211;BME280;51794;52.758;55.792;2023-02-12T14:50:36;98657.69;;;-8.01;67.99
65211;BME280;51794;52.758;55.792;2023-02-12T14:53:07;98649.34;;;-8.68;68.74
65211;BME280;51794;52.758;55.792;2023-02-12T14:55:39;98654.81;;;-8.81;68.58
65211;BME280;51794;52.758;55.792;2023-02-12T14:58:17;98649.81;;;-8.54;68.48
65211;BME280;51794;52.758;55.792;2023-02-12T15:00:46;98648.34;;;-8.95;68.62
65211;BME280;51794;52.758;55.792;2023-02-12T15:05:49;98642.81;;;-8.49;66.91
65211;BME280;51794;52.758;55.792;2023-02-12T15:16:34;98641.81;;;-8.43;67.34
65211;BME280;51794;52.758;55.792;2023-02-12T15:21:40;98641.66;;;-9.37;68.97
65211;BME280;51794;52.758;55.792;2023-02-12T15:24:12;98640.91;;;-9.06;67.99
65211;BME280;51794;52.758;55.792;2023-02-12T15:26:46;98649.34;;;-9.01;68.46
65211;BME280;51794;52.758;55.792;2023-02-12T15:31:59;98647.44;;;-8.93;68.39
65211;BME280;51794;52.758;55.792;2023-02-12T15:34:31;98646.63;;;-8.95;67.54
65211;BME280;51794;52.758;55.792;2023-02-12T15:37:01;98653.47;;;-8.95;67.57